sensor_id;sensor_type;location;lat;lon;timestamp;P1;durP1;ratioP1;P2;durP2;ratioP2
38085;SDS011;23896;50.678;10.924;2022-07-03T00:00:25;6.55;;;5.32;;
38085;SDS011;23896;50.678;10.924;2022-07-03T00:02:55;5.50;;;4.47;;
38085;SDS011;23896;50.678;10.924;2022-07-03T00:05:22;2.70;;;2.17;;
38085;SDS011;23896;50.678;10.924;2022-07-03T00:07:51;1.95;;;1.85;;
38085;SDS011;23896;50.678;10.924;2022-07-03T00:10:18;1.58;;;1.48;;
38085;SDS011;23896;50.678;10.924;2022-07-03T00:12:45;2.67;;;1.60;;
38085;SDS011;23896;50.678;10.924;2022-07-03T00:15:11;1.73;;;1.63;;
38085;SDS011;23896;50.678;10.924;2022-07-03T00:17:38;1.58;;;1.45;;
38085;SDS011;23896;50.678;10.924;2022-07-03T00:20:04;1.92;;;1.83;;
38085;SDS011;23896;50.678;10.924;2022-07-03T00:22:32;1.67;;;1.58;;
38085;SDS011;23896;50.678;10.924;2022-07-03T00:25:03;2.33;;;1.70;;
38085;SDS011;23896;50.678;10.924;2022-07-03T00:27:33;1.60;;;1.50;;
38085;SDS011;23896;50.678;10.924;2022-07-03T00:30:00;2.30;;;1.60;;
38085;SDS011;23896;50.678;10.924;2022-07-03T00:32:27;1.88;;;1.70;;
38085;SDS011;23896;50.678;10.924;2022-07-03T00:34:55;2.83;;;1.80;;
38085;SDS011;23896;50.678;10.924;2022-07-03T00:37:21;1.75;;;1.65;;
38085;SDS011;23896;50.678;10.924;2022-07-03T00:39:48;1.77;;;1.67;;
38085;SDS011;23896;50.678;10.924;2022-07-03T00:42:15;2.75;;;1.80;;
38085;SDS011;23896;50.678;10.924;2022-07-03T00:44:46;1.60;;;1.38;;
38085;SDS011;23896;50.678;10.924;2022-07-03T00:47:14;2.22;;;1.70;;
38085;SDS011;23896;50.678;10.924;2022-07-03T00:49:41;4.10;;;1.77;;
38085;SDS011;23896;50.678;10.924;2022-07-03T00:52:09;1.75;;;1.65;;
38085;SDS011;23896;50.678;10.924;2022-07-03T00:54:37;1.70;;;1.60;;
38085;SDS011;23896;50.678;10.924;2022-07-03T00:57:04;1.83;;;1.70;;
38085;SDS011;23896;50.678;10.924;2022-07-03T00:59:35;1.67;;;1.58;;
38085;SDS011;23896;50.678;10.924;2022-07-03T01:02:04;1.65;;;1.50;;
38085;SDS011;23896;50.678;10.924;2022-07-03T01:04:45;2.90;;;1.70;;
38085;SDS011;23896;50.678;10.924;2022-07-03T01:10:21;2.88;;;1.90;;
38085;SDS011;23896;50.678;10.924;2022-07-03T01:15:40;1.80;;;1.70;;
38085;SDS011;23896;50.678;10.924;2022-07-03T01:20:40;3.35;;;1.92;;
38085;SDS011;23896;50.678;10.924;2022-07-03T01:23:10;2.70;;;2.50;;
38085;SDS011;23896;50.678;10.924;2022-07-03T01:25:44;2.13;;;1.95;;
38085;SDS011;23896;50.678;10.924;2022-07-03T01:28:15;1.63;;;1.50;;
38085;SDS011;23896;50.678;10.924;2022-07-03T01:30:49;1.95;;;1.85;;
38085;SDS011;23896;50.678;10.924;2022-07-03T01:33:16;1.70;;;1.60;;
38085;SDS011;23896;50.678;10.924;2022-07-03T01:36:03;1.70;;;1.38;;
38085;SDS011;23896;50.678;10.924;2022-07-03T01:38:33;2.00;;;1.90;;
38085;SDS011;23896;50.678;10.924;2022-07-03T01:41:01;1.75;;;1.65;;
38085;SDS011;23896;50.678;10.924;2022-07-03T01:43:32;1.77;;;1.67;;
38085;SDS011;23896;50.678;10.924;2022-07-03T01:46:00;2.78;;;2.35;;
38085;SDS011;23896;50.678;10.924;2022-07-03T01:48:28;1.73;;;1.63;;
38085;SDS011;23896;50.678;10.924;2022-07-03T01:50:56;1.98;;;1.85;;
38085;SDS011;23896;50.678;10.924;2022-07-03T01:53:23;3.97;;;1.85;;
38085;SDS011;23896;50.678;10.924;2022-07-03T01:55:50;1.88;;;1.77;;
38085;SDS011;23896;50.678;10.924;2022-07-03T01:58:20;2.75;;;1.77;;
38085;SDS011;23896;50.678;10.924;2022-07-03T02:03:18;1.65;;;1.55;;
38085;SDS011;23896;50.678;10.924;2022-07-03T02:05:46;2.63;;;1.85;;
38085;SDS011;23896;50.678;10.924;2022-07-03T02:11:32;2.75;;;1.90;;
38085;SDS011;23896;50.678;10.924;2022-07-03T02:16:20;2.10;;;2.00;;
38085;SDS011;23896;50.678;10.924;2022-07-03T02:19:05;2.53;;;2.13;;
38085;SDS011;23896;50.678;10.924;2022-07-03T02:21:31;2.08;;;1.95;;
38085;SDS011;23896;50.678;10.924;2022-07-03T02:26:27;3.75;;;2.22;;
38085;SDS011;23896;50.678;10.924;2022-07-03T02:31:21;1.83;;;1.73;;
38085;SDS011;23896;50.678;10.924;2022-07-03T02:33:50;1.73;;;1.63;;
38085;SDS011;23896;50.678;10.924;2022-07-03T02:36:21;2.30;;;2.03;;
38085;SDS011;23896;50.678;10.924;2022-07-03T02:38:51;1.92;;;1.73;;
38085;SDS011;23896;50.678;10.924;2022-07-03T02:41:21;2.33;;;1.80;;
38085;SDS011;23896;50.678;10.924;2022-07-03T02:51:36;4.82;;;1.80;;
38085;SDS011;23896;50.678;10.924;2022-07-03T02:54:04;1.80;;;1.70;;
38085;SDS011;23896;50.678;10.924;2022-07-03T03:01:39;2.40;;;2.20;;
38085;SDS011;23896;50.678;10.924;2022-07-03T03:04:20;1.92;;;1.83;;
38085;SDS011;23896;50.678;10.924;2022-07-03T03:06:54;2.30;;;2.10;;
38085;SDS011;23896;50.678;10.924;2022-07-03T03:09:27;3.15;;;2.20;;
38085;SDS011;23896;50.678;10.924;2022-07-03T03:12:00;2.08;;;1.98;;
38085;SDS011;23896;50.678;10.924;2022-07-03T03:14:35;2.33;;;1.88;;
38085;SDS011;23896;50.678;10.924;2022-07-03T03:17:05;2.50;;;2.20;;
38085;SDS011;23896;50.678;10.924;2022-07-03T03:19:33;2.05;;;1.67;;
38085;SDS011;23896;50.678;10.924;2022-07-03T03:22:08;2.55;;;1.70;;
38085;SDS011;23896;50.678;10.924;2022-07-03T03:24:35;3.28;;;2.33;;
38085;SDS011;23896;50.678;10.924;2022-07-03T03:27:02;2.20;;;2.00;;
38085;SDS011;23896;50.678;10.924;2022-07-03T03:29:28;3.20;;;1.80;;
38085;SDS011;23896;50.678;10.924;2022-07-03T03:31:55;2.20;;;2.00;;
38085;SDS011;23896;50.678;10.924;2022-07-03T03:34:21;2.00;;;1.90;;
38085;SDS011;23896;50.678;10.924;2022-07-03T03:36:48;4.43;;;2.60;;
38085;SDS011;23896;50.678;10.924;2022-07-03T03:39:15;3.05;;;1.65;;
38085;SDS011;23896;50.678;10.924;2022-07-03T03:41:41;1.73;;;1.50;;
38085;SDS011;23896;50.678;10.924;2022-07-03T03:44:08;2.10;;;2.00;;
38085;SDS011;23896;50.678;10.924;2022-07-03T03:46:34;2.03;;;1.83;;
38085;SDS011;23896;50.678;10.924;2022-07-03T03:49:00;1.95;;;1.85;;
38085;SDS011;23896;50.678;10.924;2022-07-03T03:51:27;2.33;;;2.15;;
38085;SDS011;23896;50.678;10.924;2022-07-03T03:53:53;2.42;;;2.05;;
38085;SDS011;23896;50.678;10.924;2022-07-03T03:56:20;3.78;;;1.85;;
38085;SDS011;23896;50.678;10.924;2022-07-03T03:58:46;2.15;;;2.05;;
38085;SDS011;23896;50.678;10.924;2022-07-03T04:01:13;2.20;;;2.00;;
38085;SDS011;23896;50.678;10.924;2022-07-03T04:03:39;2.13;;;2.03;;
38085;SDS011;23896;50.678;10.924;2022-07-03T04:06:09;2.17;;;2.08;;
38085;SDS011;23896;50.678;10.924;2022-07-03T04:08:36;2.67;;;2.47;;
38085;SDS011;23896;50.678;10.924;2022-07-03T04:11:02;2.20;;;2.10;;
38085;SDS011;23896;50.678;10.924;2022-07-03T04:13:29;3.15;;;2.45;;
38085;SDS011;23896;50.678;10.924;2022-07-03T04:15:56;2.03;;;1.92;;
38085;SDS011;23896;50.678;10.924;2022-07-03T04:18:24;2.45;;;2.25;;
38085;SDS011;23896;50.678;10.924;2022-07-03T04:20:53;2.35;;;2.15;;
38085;SDS011;23896;50.678;10.924;2022-07-03T04:23:20;3.80;;;2.10;;
38085;SDS011;23896;50.678;10.924;2022-07-03T04:25:50;2.13;;;2.03;;
38085;SDS011;23896;50.678;10.924;2022-07-03T04:28:16;2.25;;;2.05;;
38085;SDS011;23896;50.678;10.924;2022-07-03T04:30:42;4.28;;;2.58;;
38085;SDS011;23896;50.678;10.924;2022-07-03T04:33:09;2.35;;;1.90;;
38085;SDS011;23896;50.678;10.924;2022-07-03T04:35:35;2.28;;;2.17;;
38085;SDS011;23896;50.678;10.924;2022-07-03T04:38:03;2.30;;;2.17;;
38085;SDS011;23896;50.678;10.924;2022-07-03T04:40:33;2.47;;;2.28;;
38085;SDS011;23896;50.678;10.924;2022-07-03T04:42:59;2.45;;;2.25;;
38085;SDS011;23896;50.678;10.924;2022-07-03T04:45:25;4.20;;;1.90;;
38085;SDS011;23896;50.678;10.924;2022-07-03T04:47:52;3.72;;;1.80;;
38085;SDS011;23896;50.678;10.924;2022-07-03T04:50:21;2.35;;;2.00;;
38085;SDS011;23896;50.678;10.924;2022-07-03T04:52:48;2.08;;;1.90;;
38085;SDS011;23896;50.678;10.924;2022-07-03T04:55:14;3.53;;;2.05;;
38085;SDS011;23896;50.678;10.924;2022-07-03T04:57:41;2.13;;;2.03;;
38085;SDS011;23896;50.678;10.924;2022-07-03T05:00:07;2.10;;;1.60;;
38085;SDS011;23896;50.678;10.924;2022-07-03T05:02:34;2.20;;;2.10;;
38085;SDS011;23896;50.678;10.924;2022-07-03T05:05:03;2.08;;;1.98;;
38085;SDS011;23896;50.678;10.924;2022-07-03T05:07:30;2.42;;;2.13;;
38085;SDS011;23896;50.678;10.924;2022-07-03T05:10:00;2.13;;;1.90;;
38085;SDS011;23896;50.678;10.924;2022-07-03T05:12:29;3.00;;;1.85;;
38085;SDS011;23896;50.678;10.924;2022-07-03T05:14:55;2.17;;;1.95;;
38085;SDS011;23896;50.678;10.924;2022-07-03T05:17:23;1.67;;;1.58;;
38085;SDS011;23896;50.678;10.924;2022-07-03T05:19:49;1.70;;;1.60;;
38085;SDS011;23896;50.678;10.924;2022-07-03T05:22:34;2.45;;;2.00;;
38085;SDS011;23896;50.678;10.924;2022-07-03T05:25:01;2.42;;;1.98;;
38085;SDS011;23896;50.678;10.924;2022-07-03T05:27:27;1.60;;;1.50;;
38085;SDS011;23896;50.678;10.924;2022-07-03T05:29:54;1.52;;;1.42;;
38085;SDS011;23896;50.678;10.924;2022-07-03T05:32:20;2.45;;;1.77;;
38085;SDS011;23896;50.678;10.924;2022-07-03T05:34:47;8.23;;;1.70;;
38085;SDS011;23896;50.678;10.924;2022-07-03T05:37:16;1.67;;;1.58;;
38085;SDS011;23896;50.678;10.924;2022-07-03T05:39:43;3.00;;;1.55;;
38085;SDS011;23896;50.678;10.924;2022-07-03T05:42:09;2.15;;;1.40;;
38085;SDS011;23896;50.678;10.924;2022-07-03T05:44:36;2.15;;;1.30;;
38085;SDS011;23896;50.678;10.924;2022-07-03T05:47:03;3.50;;;1.60;;
38085;SDS011;23896;50.678;10.924;2022-07-03T05:49:29;1.67;;;1.50;;
38085;SDS011;23896;50.678;10.924;2022-07-03T05:51:58;1.52;;;1.42;;
38085;SDS011;23896;50.678;10.924;2022-07-03T05:54:25;2.63;;;1.40;;
38085;SDS011;23896;50.678;10.924;2022-07-03T05:56:54;1.73;;;1.60;;
38085;SDS011;23896;50.678;10.924;2022-07-03T05:59:21;1.63;;;1.52;;
38085;SDS011;23896;50.678;10.924;2022-07-03T06:01:47;1.83;;;1.65;;
38085;SDS011;23896;50.678;10.924;2022-07-03T06:04:14;1.88;;;1.63;;
38085;SDS011;23896;50.678;10.924;2022-07-03T06:06:41;3.78;;;1.50;;
38085;SDS011;23896;50.678;10.924;2022-07-03T06:09:10;2.40;;;1.80;;
38085;SDS011;23896;50.678;10.924;2022-07-03T06:11:38;2.95;;;1.67;;
38085;SDS011;23896;50.678;10.924;2022-07-03T06:14:05;1.40;;;1.30;;
38085;SDS011;23896;50.678;10.924;2022-07-03T06:16:31;2.20;;;1.13;;
38085;SDS011;23896;50.678;10.924;2022-07-03T06:18:58;1.80;;;1.60;;
38085;SDS011;23896;50.678;10.924;2022-07-03T06:21:26;1.90;;;1.77;;
38085;SDS011;23896;50.678;10.924;2022-07-03T06:23:52;2.95;;;1.55;;
38085;SDS011;23896;50.678;10.924;2022-07-03T06:26:19;3.80;;;1.70;;
38085;SDS011;23896;50.678;10.924;2022-07-03T06:28:48;2.17;;;1.60;;
38085;SDS011;23896;50.678;10.924;2022-07-03T06:31:15;1.52;;;1.13;;
38085;SDS011;23896;50.678;10.924;2022-07-03T06:33:41;1.50;;;1.35;;
38085;SDS011;23896;50.678;10.924;2022-07-03T06:36:09;3.28;;;1.58;;
38085;SDS011;23896;50.678;10.924;2022-07-03T06:38:37;1.60;;;1.50;;
38085;SDS011;23896;50.678;10.924;2022-07-03T06:41:03;3.50;;;1.73;;
38085;SDS011;23896;50.678;10.924;2022-07-03T06:43:30;2.63;;;1.58;;
38085;SDS011;23896;50.678;10.924;2022-07-03T06:45:56;2.80;;;1.30;;
38085;SDS011;23896;50.678;10.924;2022-07-03T06:48:23;1.65;;;1.55;;
38085;SDS011;23896;50.678;10.924;2022-07-03T06:50:55;1.50;;;1.40;;
38085;SDS011;23896;50.678;10.924;2022-07-03T06:53:25;4.93;;;1.60;;
38085;SDS011;23896;50.678;10.924;2022-07-03T06:55:51;1.38;;;1.27;;
38085;SDS011;23896;50.678;10.924;2022-07-03T06:58:21;1.30;;;1.20;;
38085;SDS011;23896;50.678;10.924;2022-07-03T07:00:50;1.60;;;1.15;;
38085;SDS011;23896;50.678;10.924;2022-07-03T07:03:17;1.85;;;1.50;;
38085;SDS011;23896;50.678;10.924;2022-07-03T07:05:43;2.25;;;1.20;;
38085;SDS011;23896;50.678;10.924;2022-07-03T07:08:13;1.52;;;1.42;;
38085;SDS011;23896;50.678;10.924;2022-07-03T07:10:39;1.60;;;1.50;;
38085;SDS011;23896;50.678;10.924;2022-07-03T07:13:08;2.03;;;1.55;;
38085;SDS011;23896;50.678;10.924;2022-07-03T07:15:35;2.17;;;1.40;;
38085;SDS011;23896;50.678;10.924;2022-07-03T07:18:06;1.70;;;1.60;;
38085;SDS011;23896;50.678;10.924;2022-07-03T07:20:33;4.50;;;1.50;;
38085;SDS011;23896;50.678;10.924;2022-07-03T07:23:02;1.42;;;1.33;;
38085;SDS011;23896;50.678;10.924;2022-07-03T07:25:31;3.22;;;1.40;;
38085;SDS011;23896;50.678;10.924;2022-07-03T07:27:58;5.15;;;1.35;;
38085;SDS011;23896;50.678;10.924;2022-07-03T07:30:24;1.73;;;1.60;;
38085;SDS011;23896;50.678;10.924;2022-07-03T07:32:51;1.52;;;1.42;;
38085;SDS011;23896;50.678;10.924;2022-07-03T07:35:19;3.17;;;1.60;;
38085;SDS011;23896;50.678;10.924;2022-07-03T07:37:45;1.65;;;1.55;;
38085;SDS011;23896;50.678;10.924;2022-07-03T07:40:16;6.15;;;1.60;;
38085;SDS011;23896;50.678;10.924;2022-07-03T07:42:42;3.35;;;1.40;;
38085;SDS011;23896;50.678;10.924;2022-07-03T07:45:10;2.53;;;1.40;;
38085;SDS011;23896;50.678;10.924;2022-07-03T07:47:36;2.50;;;1.70;;
38085;SDS011;23896;50.678;10.924;2022-07-03T07:50:03;1.80;;;1.70;;
38085;SDS011;23896;50.678;10.924;2022-07-03T07:52:30;2.08;;;1.52;;
38085;SDS011;23896;50.678;10.924;2022-07-03T07:54:56;1.50;;;1.40;;
38085;SDS011;23896;50.678;10.924;2022-07-03T07:57:23;1.48;;;1.38;;
38085;SDS011;23896;50.678;10.924;2022-07-03T07:59:49;1.20;;;1.17;;
38085;SDS011;23896;50.678;10.924;2022-07-03T08:02:15;1.92;;;1.48;;
38085;SDS011;23896;50.678;10.924;2022-07-03T08:05:17;1.73;;;1.10;;
38085;SDS011;23896;50.678;10.924;2022-07-03T08:08:12;1.60;;;1.50;;
38085;SDS011;23896;50.678;10.924;2022-07-03T08:10:46;2.65;;;1.40;;
38085;SDS011;23896;50.678;10.924;2022-07-03T08:13:14;1.10;;;1.10;;
38085;SDS011;23896;50.678;10.924;2022-07-03T08:15:47;3.33;;;1.42;;
38085;SDS011;23896;50.678;10.924;2022-07-03T08:18:14;1.88;;;1.40;;
38085;SDS011;23896;50.678;10.924;2022-07-03T08:20:43;1.67;;;1.25;;
38085;SDS011;23896;50.678;10.924;2022-07-03T08:23:10;2.90;;;1.42;;
38085;SDS011;23896;50.678;10.924;2022-07-03T08:25:51;2.72;;;1.30;;
38085;SDS011;23896;50.678;10.924;2022-07-03T08:28:18;1.40;;;1.30;;
38085;SDS011;23896;50.678;10.924;2022-07-03T08:30:45;1.77;;;1.42;;
38085;SDS011;23896;50.678;10.924;2022-07-03T08:33:12;2.83;;;1.70;;
38085;SDS011;23896;50.678;10.924;2022-07-03T08:35:38;1.98;;;1.65;;
38085;SDS011;23896;50.678;10.924;2022-07-03T08:38:05;1.52;;;1.42;;
38085;SDS011;23896;50.678;10.924;2022-07-03T08:40:31;1.95;;;1.77;;
38085;SDS011;23896;50.678;10.924;2022-07-03T08:42:58;5.97;;;2.63;;
38085;SDS011;23896;50.678;10.924;2022-07-03T08:45:29;1.58;;;1.20;;
38085;SDS011;23896;50.678;10.924;2022-07-03T08:47:59;3.70;;;1.13;;
38085;SDS011;23896;50.678;10.924;2022-07-03T08:50:25;3.67;;;1.00;;
38085;SDS011;23896;50.678;10.924;2022-07-03T08:52:52;1.85;;;1.33;;
38085;SDS011;23896;50.678;10.924;2022-07-03T08:55:19;1.42;;;0.93;;
38085;SDS011;23896;50.678;10.924;2022-07-03T08:57:48;1.30;;;1.20;;
38085;SDS011;23896;50.678;10.924;2022-07-03T09:00:18;1.30;;;1.20;;
38085;SDS011;23896;50.678;10.924;2022-07-03T09:02:46;1.75;;;1.48;;
38085;SDS011;23896;50.678;10.924;2022-07-03T09:05:13;1.15;;;1.05;;
38085;SDS011;23896;50.678;10.924;2022-07-03T09:07:41;2.75;;;1.50;;
38085;SDS011;23896;50.678;10.924;2022-07-03T09:10:08;1.85;;;1.10;;
38085;SDS011;23896;50.678;10.924;2022-07-03T09:12:35;2.22;;;1.15;;
38085;SDS011;23896;50.678;10.924;2022-07-03T09:15:02;1.30;;;1.20;;
38085;SDS011;23896;50.678;10.924;2022-07-03T09:17:32;1.20;;;1.10;;
38085;SDS011;23896;50.678;10.924;2022-07-03T09:20:02;1.67;;;1.58;;
38085;SDS011;23896;50.678;10.924;2022-07-03T09:22:30;2.28;;;2.08;;
38085;SDS011;23896;50.678;10.924;2022-07-03T09:25:07;1.23;;;1.13;;
38085;SDS011;23896;50.678;10.924;2022-07-03T09:27:34;1.80;;;1.45;;
38085;SDS011;23896;50.678;10.924;2022-07-03T09:30:03;4.47;;;1.33;;
38085;SDS011;23896;50.678;10.924;2022-07-03T09:32:31;3.80;;;1.50;;
38085;SDS011;23896;50.678;10.924;2022-07-03T09:35:31;1.50;;;1.40;;
38085;SDS011;23896;50.678;10.924;2022-07-03T09:37:57;2.58;;;1.60;;
38085;SDS011;23896;50.678;10.924;2022-07-03T09:40:25;1.50;;;1.40;;
38085;SDS011;23896;50.678;10.924;2022-07-03T09:42:59;1.48;;;1.30;;
38085;SDS011;23896;50.678;10.924;2022-07-03T09:45:26;1.67;;;1.55;;
38085;SDS011;23896;50.678;10.924;2022-07-03T09:47:55;1.35;;;1.25;;
38085;SDS011;23896;50.678;10.924;2022-07-03T09:50:25;1.50;;;1.40;;
38085;SDS011;23896;50.678;10.924;2022-07-03T09:52:52;1.50;;;1.40;;
38085;SDS011;23896;50.678;10.924;2022-07-03T09:55:19;1.30;;;1.13;;
38085;SDS011;23896;50.678;10.924;2022-07-03T10:00:25;2.97;;;1.40;;
38085;SDS011;23896;50.678;10.924;2022-07-03T10:02:57;1.92;;;1.42;;
38085;SDS011;23896;50.678;10.924;2022-07-03T10:05:45;3.22;;;2.47;;
38085;SDS011;23896;50.678;10.924;2022-07-03T10:08:16;6.50;;;6.00;;
38085;SDS011;23896;50.678;10.924;2022-07-03T10:10:45;2.45;;;1.27;;
38085;SDS011;23896;50.678;10.924;2022-07-03T10:13:12;1.45;;;1.33;;
38085;SDS011;23896;50.678;10.924;2022-07-03T10:15:39;2.28;;;1.33;;
38085;SDS011;23896;50.678;10.924;2022-07-03T10:18:08;1.88;;;1.17;;
38085;SDS011;23896;50.678;10.924;2022-07-03T10:20:35;2.20;;;1.60;;
38085;SDS011;23896;50.678;10.924;2022-07-03T10:23:02;1.63;;;1.52;;
38085;SDS011;23896;50.678;10.924;2022-07-03T10:25:34;2.28;;;1.52;;
38085;SDS011;23896;50.678;10.924;2022-07-03T10:28:01;1.95;;;1.58;;
38085;SDS011;23896;50.678;10.924;2022-07-03T10:30:28;3.58;;;1.92;;
38085;SDS011;23896;50.678;10.924;2022-07-03T10:32:55;1.48;;;1.38;;
38085;SDS011;23896;50.678;10.924;2022-07-03T10:35:31;1.88;;;1.77;;
38085;SDS011;23896;50.678;10.924;2022-07-03T10:40:34;2.28;;;1.30;;
38085;SDS011;23896;50.678;10.924;2022-07-03T10:46:29;2.63;;;1.88;;
38085;SDS011;23896;50.678;10.924;2022-07-03T10:49:03;2.25;;;1.65;;
38085;SDS011;23896;50.678;10.924;2022-07-03T10:51:31;1.88;;;1.40;;
38085;SDS011;23896;50.678;10.924;2022-07-03T11:02:22;2.28;;;1.10;;
38085;SDS011;23896;50.678;10.924;2022-07-03T11:07:28;3.10;;;1.40;;
38085;SDS011;23896;50.678;10.924;2022-07-03T11:10:41;2.35;;;1.75;;
38085;SDS011;23896;50.678;10.924;2022-07-03T11:18:09;2.40;;;1.27;;
38085;SDS011;23896;50.678;10.924;2022-07-03T11:36:09;1.52;;;1.42;;
38085;SDS011;23896;50.678;10.924;2022-07-03T11:38:36;1.13;;;1.10;;
38085;SDS011;23896;50.678;10.924;2022-07-03T11:41:06;2.95;;;1.50;;
38085;SDS011;23896;50.678;10.924;2022-07-03T11:43:36;1.48;;;1.38;;
38085;SDS011;23896;50.678;10.924;2022-07-03T11:46:03;1.55;;;0.98;;
38085;SDS011;23896;50.678;10.924;2022-07-03T11:48:30;1.63;;;1.00;;
38085;SDS011;23896;50.678;10.924;2022-07-03T11:51:03;1.58;;;1.05;;
38085;SDS011;23896;50.678;10.924;2022-07-03T11:53:31;0.98;;;0.98;;
38085;SDS011;23896;50.678;10.924;2022-07-03T11:58:44;1.25;;;1.15;;
38085;SDS011;23896;50.678;10.924;2022-07-03T12:01:11;1.17;;;1.00;;
38085;SDS011;23896;50.678;10.924;2022-07-03T12:03:38;1.23;;;1.13;;
38085;SDS011;23896;50.678;10.924;2022-07-03T12:06:04;2.25;;;1.00;;
38085;SDS011;23896;50.678;10.924;2022-07-03T12:08:31;1.08;;;1.00;;
38085;SDS011;23896;50.678;10.924;2022-07-03T12:11:00;1.27;;;1.17;;
38085;SDS011;23896;50.678;10.924;2022-07-03T12:13:29;1.13;;;0.90;;
38085;SDS011;23896;50.678;10.924;2022-07-03T12:16:12;1.20;;;0.95;;
38085;SDS011;23896;50.678;10.924;2022-07-03T12:18:44;1.15;;;1.15;;
38085;SDS011;23896;50.678;10.924;2022-07-03T12:21:20;1.30;;;1.20;;
38085;SDS011;23896;50.678;10.924;2022-07-03T12:23:49;1.13;;;1.13;;
38085;SDS011;23896;50.678;10.924;2022-07-03T12:26:32;1.30;;;1.02;;
38085;SDS011;23896;50.678;10.924;2022-07-03T12:29:00;1.30;;;1.20;;
38085;SDS011;23896;50.678;10.924;2022-07-03T12:31:27;2.00;;;1.08;;
38085;SDS011;23896;50.678;10.924;2022-07-03T12:33:57;2.88;;;1.20;;
38085;SDS011;23896;50.678;10.924;2022-07-03T12:36:24;1.55;;;1.13;;
38085;SDS011;23896;50.678;10.924;2022-07-03T12:38:52;1.95;;;1.02;;
38085;SDS011;23896;50.678;10.924;2022-07-03T12:41:19;0.85;;;0.80;;
38085;SDS011;23896;50.678;10.924;2022-07-03T12:43:46;0.90;;;0.90;;
38085;SDS011;23896;50.678;10.924;2022-07-03T12:46:21;1.30;;;1.20;;
38085;SDS011;23896;50.678;10.924;2022-07-03T12:48:52;0.98;;;0.90;;
38085;SDS011;23896;50.678;10.924;2022-07-03T12:54:04;1.00;;;1.00;;
38085;SDS011;23896;50.678;10.924;2022-07-03T12:56:34;1.35;;;1.00;;
38085;SDS011;23896;50.678;10.924;2022-07-03T12:59:01;2.65;;;0.80;;
38085;SDS011;23896;50.678;10.924;2022-07-03T13:01:43;2.05;;;1.10;;
38085;SDS011;23896;50.678;10.924;2022-07-03T13:04:10;1.38;;;1.02;;
38085;SDS011;23896;50.678;10.924;2022-07-03T13:06:42;1.20;;;1.13;;
38085;SDS011;23896;50.678;10.924;2022-07-03T13:09:10;2.45;;;1.10;;
38085;SDS011;23896;50.678;10.924;2022-07-03T13:11:38;2.38;;;1.42;;
38085;SDS011;23896;50.678;10.924;2022-07-03T13:14:06;1.05;;;0.95;;
38085;SDS011;23896;50.678;10.924;2022-07-03T13:16:36;1.15;;;1.05;;
38085;SDS011;23896;50.678;10.924;2022-07-03T13:19:09;1.48;;;1.33;;
38085;SDS011;23896;50.678;10.924;2022-07-03T13:21:36;1.50;;;1.40;;
38085;SDS011;23896;50.678;10.924;2022-07-03T13:24:04;1.02;;;1.02;;
38085;SDS011;23896;50.678;10.924;2022-07-03T13:26:31;2.25;;;0.80;;
38085;SDS011;23896;50.678;10.924;2022-07-03T13:29:00;1.00;;;1.00;;
38085;SDS011;23896;50.678;10.924;2022-07-03T13:31:27;1.05;;;1.05;;
38085;SDS011;23896;50.678;10.924;2022-07-03T13:33:53;1.20;;;1.10;;
38085;SDS011;23896;50.678;10.924;2022-07-03T13:36:22;4.00;;;1.00;;
38085;SDS011;23896;50.678;10.924;2022-07-03T13:38:49;0.90;;;0.90;;
38085;SDS011;23896;50.678;10.924;2022-07-03T13:41:15;1.13;;;1.00;;
38085;SDS011;23896;50.678;10.924;2022-07-03T13:43:47;2.15;;;1.02;;
38085;SDS011;23896;50.678;10.924;2022-07-03T13:46:14;1.27;;;1.17;;
38085;SDS011;23896;50.678;10.924;2022-07-03T13:48:41;1.45;;;1.10;;
38085;SDS011;23896;50.678;10.924;2022-07-03T13:51:07;3.42;;;0.90;;
38085;SDS011;23896;50.678;10.924;2022-07-03T13:53:37;1.50;;;1.10;;
38085;SDS011;23896;50.678;10.924;2022-07-03T13:56:06;2.05;;;1.20;;
38085;SDS011;23896;50.678;10.924;2022-07-03T13:58:35;1.75;;;1.08;;
38085;SDS011;23896;50.678;10.924;2022-07-03T14:01:02;1.00;;;1.00;;
38085;SDS011;23896;50.678;10.924;2022-07-03T14:03:28;1.00;;;0.95;;
38085;SDS011;23896;50.678;10.924;2022-07-03T14:05:55;2.42;;;1.00;;
38085;SDS011;23896;50.678;10.924;2022-07-03T14:08:22;1.00;;;0.98;;
38085;SDS011;23896;50.678;10.924;2022-07-03T14:10:48;0.93;;;0.93;;
38085;SDS011;23896;50.678;10.924;2022-07-03T14:13:15;1.05;;;1.05;;
38085;SDS011;23896;50.678;10.924;2022-07-03T14:15:44;1.13;;;1.02;;
38085;SDS011;23896;50.678;10.924;2022-07-03T14:18:11;1.58;;;1.00;;
38085;SDS011;23896;50.678;10.924;2022-07-03T14:20:38;3.90;;;1.42;;
38085;SDS011;23896;50.678;10.924;2022-07-03T14:23:05;1.30;;;1.10;;
38085;SDS011;23896;50.678;10.924;2022-07-03T14:25:31;0.82;;;0.82;;
38085;SDS011;23896;50.678;10.924;2022-07-03T14:27:59;0.98;;;0.90;;
38085;SDS011;23896;50.678;10.924;2022-07-03T14:30:44;0.90;;;0.90;;
38085;SDS011;23896;50.678;10.924;2022-07-03T14:33:29;2.47;;;1.00;;
38085;SDS011;23896;50.678;10.924;2022-07-03T14:35:56;1.15;;;1.10;;
38085;SDS011;23896;50.678;10.924;2022-07-03T14:38:22;1.13;;;1.10;;
38085;SDS011;23896;50.678;10.924;2022-07-03T14:40:49;0.82;;;0.80;;
38085;SDS011;23896;50.678;10.924;2022-07-03T14:43:17;1.00;;;1.00;;
38085;SDS011;23896;50.678;10.924;2022-07-03T14:45:43;0.90;;;0.90;;
38085;SDS011;23896;50.678;10.924;2022-07-03T14:48:10;2.42;;;1.00;;
38085;SDS011;23896;50.678;10.924;2022-07-03T14:50:37;1.20;;;1.13;;
38085;SDS011;23896;50.678;10.924;2022-07-03T14:53:06;1.20;;;0.95;;
38085;SDS011;23896;50.678;10.924;2022-07-03T14:55:36;1.13;;;1.00;;
38085;SDS011;23896;50.678;10.924;2022-07-03T14:58:16;1.30;;;1.20;;
38085;SDS011;23896;50.678;10.924;2022-07-03T15:00:51;0.90;;;0.90;;
38085;SDS011;23896;50.678;10.924;2022-07-03T15:05:56;1.52;;;1.08;;
38085;SDS011;23896;50.678;10.924;2022-07-03T15:08:29;2.05;;;0.93;;
38085;SDS011;23896;50.678;10.924;2022-07-03T15:11:08;4.20;;;1.00;;
38085;SDS011;23896;50.678;10.924;2022-07-03T15:13:57;2.30;;;1.08;;
38085;SDS011;23896;50.678;10.924;2022-07-03T15:16:25;1.00;;;1.00;;
38085;SDS011;23896;50.678;10.924;2022-07-03T15:18:52;1.20;;;1.10;;
38085;SDS011;23896;50.678;10.924;2022-07-03T15:21:18;1.60;;;1.17;;
38085;SDS011;23896;50.678;10.924;2022-07-03T15:23:46;1.30;;;1.20;;
38085;SDS011;23896;50.678;10.924;2022-07-03T15:26:13;1.15;;;1.10;;
38085;SDS011;23896;50.678;10.924;2022-07-03T15:28:40;1.00;;;0.90;;
38085;SDS011;23896;50.678;10.924;2022-07-03T15:31:07;0.82;;;0.82;;
38085;SDS011;23896;50.678;10.924;2022-07-03T15:33:35;1.17;;;0.95;;
38085;SDS011;23896;50.678;10.924;2022-07-03T15:36:02;1.00;;;1.00;;
38085;SDS011;23896;50.678;10.924;2022-07-03T15:38:42;2.15;;;1.02;;
38085;SDS011;23896;50.678;10.924;2022-07-03T15:41:11;1.10;;;1.00;;
38085;SDS011;23896;50.678;10.924;2022-07-03T15:46:27;2.85;;;0.95;;
38085;SDS011;23896;50.678;10.924;2022-07-03T15:51:52;1.33;;;0.77;;
38085;SDS011;23896;50.678;10.924;2022-07-03T15:54:20;0.80;;;0.80;;
38085;SDS011;23896;50.678;10.924;2022-07-03T15:56:49;2.17;;;1.27;;
38085;SDS011;23896;50.678;10.924;2022-07-03T15:59:17;0.70;;;0.70;;
38085;SDS011;23896;50.678;10.924;2022-07-03T16:01:48;1.17;;;1.10;;
38085;SDS011;23896;50.678;10.924;2022-07-03T16:04:49;0.98;;;0.90;;
38085;SDS011;23896;50.678;10.924;2022-07-03T16:07:19;1.00;;;0.90;;
38085;SDS011;23896;50.678;10.924;2022-07-03T16:09:47;1.00;;;1.00;;
38085;SDS011;23896;50.678;10.924;2022-07-03T16:12:14;1.08;;;0.80;;